• Join FlightAware (Why Join?)
  • Login
  • US Flag 
01:00PM EDT


 

Airport Tracker/Info


-or-


 

Live Flight TrackerFlight Track Log ✈ MTN7303 ✈ 01-Jul-2013 ✈ KBWI - KEWR

Flight Track Log - Related Links

Times and Time Zones

All times are in EDT time to prevent confusion due to time zone crossing. See the MTN7303 flight status page for this flight to view local times or setup timezone preferences in your user account.

Time Position Orientation Groundspeed Altitude Reporting Facility
EDT Latitude Longitude Course Direction KTS MPH feet Rate Location/Type
11:24PM 39.2000 -76.6000 30° Northeast 132 152 1,800  Level Potomac TRACON
11:25PM 39.2333 -76.5667 38° Northeast 138 159 2,500 720 Climbing Potomac TRACON
11:26PM 39.2667 -76.5167 49° Northeast 139 160 3,300 720 Climbing Potomac TRACON
11:27PM 39.2833 -76.5000 38° Northeast 141 162 3,900 600 Climbing Potomac TRACON
11:28PM 39.4160 -76.4340 38° Northeast  Level FlightAware Approximate
11:28PM 39.3167 -76.4500 49° Northeast 138 159 4,600  Level Potomac TRACON
11:29PM 39.4682 -76.3906 30° Northeast  Level FlightAware Approximate
11:29PM 39.3500 -76.4167 38° Northeast 145 167 5,100  Level Potomac TRACON
11:30PM 39.3833 -76.3833 38° Northeast 177 204 5,100 -60 Level Potomac TRACON
11:31PM 39.4167 -76.3333 49° Northeast 184 212 5,000 -60 Descending Potomac TRACON
11:33PM 39.4833 -76.2333 49° Northeast 186 214 5,000  Level Philadelphia TRACON
11:34PM 39.5167 -76.2000 38° Northeast 188 216 5,000  Level Philadelphia TRACON
11:35PM 39.5667 -76.1500 38° Northeast 183 211 5,000  Level Philadelphia TRACON
11:36PM 39.6000 -76.1000 49° Northeast 181 208 5,000  Level Philadelphia TRACON
11:37PM 39.6333 -76.0500 49° Northeast 181 208 5,000  Level Philadelphia TRACON
11:38PM 39.6667 -76.0167 38° Northeast 177 204 5,000  Level Philadelphia TRACON
11:39PM 39.7000 -75.9667 49° Northeast 178 205 5,000  Level Philadelphia TRACON
11:40PM 39.7333 -75.9167 49° Northeast 177 204 5,000  Level Philadelphia TRACON
11:41PM 39.7667 -75.8667 49° Northeast 176 203 5,000  Level Philadelphia TRACON
11:42PM 39.8000 -75.8333 38° Northeast 180 207 5,000  Level Philadelphia TRACON
11:43PM 39.8333 -75.7833 49° Northeast 178 205 5,000  Level Philadelphia TRACON
11:44PM 39.8667 -75.7333 49° Northeast 179 206 5,000  Level Philadelphia TRACON
11:45PM 39.9000 -75.7000 37° Northeast 178 205 5,000  Level Philadelphia TRACON
11:46PM 39.9333 -75.6500 49° Northeast 177 204 5,000  Level Philadelphia TRACON
11:47PM 39.9500 -75.5833 72° East 175 201 5,000  Level Philadelphia TRACON
11:47PM 39.9833 -75.5333 49° Northeast 177 204 5,000  Level Philadelphia TRACON
11:48PM 40.0000 -75.4833 66° East 174 200 5,000  Level Philadelphia TRACON
11:49PM 40.0333 -75.4333 49° Northeast 173 199 5,000  Level Philadelphia TRACON
11:50PM 40.0500 -75.3667 72° East 175 201 5,000  Level Philadelphia TRACON
11:52PM 40.0833 -75.3000 57° Northeast 171 197 5,000  Level Philadelphia TRACON
11:53PM 40.1000 -75.2500 66° East 174 200 5,000  Level Philadelphia TRACON
11:54PM 40.1333 -75.2000 49° Northeast 174 200 5,000  Level Philadelphia TRACON
11:55PM 40.1667 -75.1000 66° East 175 201 5,000  Level New York TRACON
11:56PM 40.1833 -75.0500 66° East 176 203 5,000  Level New York TRACON
11:57PM 40.2167 -75.0000 49° Northeast 176 203 5,000  Level New York TRACON
11:58PM 40.2333 -74.9333 72° East 175 201 5,000  Level New York TRACON
11:59PM 40.2667 -74.8833 49° Northeast 181 208 5,000  Level New York TRACON
12:00AM 40.3000 -74.8333 49° Northeast 183 211 5,000  Level New York TRACON
12:01AM 40.3500 -74.8000 27° Northeast 186 214 5,100 -60 Climbing New York TRACON
12:02AM 40.3833 -74.7667 37° Northeast 190 219 4,900 -300 Descending New York TRACON
12:03AM 40.4333 -74.7167 37° Northeast 197 227 4,500 -420 Descending New York TRACON
12:04AM 40.4833 -74.6833 27° Northeast 196 226 4,100 -420 Descending New York TRACON
12:05AM 40.5167 -74.6333 49° Northeast 198 228 3,700 -420 Descending New York TRACON
12:06AM 40.5667 -74.6000 27° Northeast 197 227 3,300 -300 Descending New York TRACON
12:07AM 40.6000 -74.5500 49° Northeast 193 222 3,100 -120 Descending New York TRACON
12:08AM 40.6500 -74.5000 37° Northeast 184 212 3,100  Level New York TRACON
12:09AM 40.6833 -74.4500 49° Northeast 186 214 3,100  Level New York TRACON
12:10AM 40.7167 -74.4000 49° Northeast 185 213 3,100  Level New York TRACON
12:11AM 40.7500 -74.3500 49° Northeast 183 211 3,100  Level New York TRACON
12:12AM 40.7833 -74.3000 49° Northeast 184 212 3,100  Level New York TRACON
12:13AM 40.8167 -74.2333 57° Northeast 185 213 3,100  Level New York TRACON
12:14AM 40.8333 -74.1833 66° East 184 212 3,100 -60 Level New York TRACON
12:15AM 40.8500 -74.1167 72° East 182 209 3,000 -300 Descending New York TRACON
12:16AM 40.8167 -74.1000 159° South 147 169 2,600 -480 Descending New York TRACON
12:17AM 40.7833 -74.1167 201° Southwest 143 165 2,100 -660 Descending New York TRACON
12:18AM 40.7333 -74.1500 207° Southwest 155 178 1,300 -780 Descending New York TRACON
12:20AM 40.6925 -74.1687 194° South  Level Estimated
12:27AM 40.6925 -74.1687 198° South  Level Estimated
12:28AM 40.6925 -74.1687 198° South  Level Estimated